Time;durP1;ratioP1;P1;durP2;ratioP2;P2;SDS_P1;SDS_P2;PMS_P1;PMS_P2;Temp;Humidity;BMP_temperature;BMP_pressure;BME280_temperature;BME280_humidity;BME280_pressure;Samples;Min_cycle;Max_cycle;Signal;HPM_P1;HPM_P2
2023/01/01 00:01:23;;;;;;;59.13;36.08;;;;;;;17.08;55.86;100731.34;6155030;23;20032;-42
2023/01/01 00:03:54;;;;;;;58.42;35.22;;;;;;;17.08;55.94;100742.06;6155688;23;20021;-42
2023/01/01 00:06:22;;;;;;;55.50;34.17;;;;;;;17.08;55.53;100750.09;6156376;23;20277;-41
2023/01/01 00:10:26;;;;;;;45.47;29.30;;;;;;;17.07;56.33;100756.44;6156730;23;20108;-41
2023/01/01 00:11:35;;;;;;;54.85;32.40;;;;;;;17.08;55.74;100755.44;6156814;23;20021;-42
2023/01/01 00:14:02;;;;;;;50.42;30.90;;;;;;;17.07;55.45;100759.97;6157592;23;20247;-42
2023/01/01 00:16:37;;;;;;;57.10;31.98;;;;;;;17.07;55.81;100754.59;6158025;23;20025;-42
2023/01/01 00:19:04;;;;;;;47.47;30.00;;;;;;;17.07;55.93;100754.59;6157191;23;20033;-41
2023/01/01 00:21:31;;;;;;;56.03;32.10;;;;;;;17.07;56.14;100751.91;6158093;23;20025;-41
2023/01/01 00:23:57;;;;;;;51.28;29.05;;;;;;;17.06;56.36;100760.97;6157118;23;20282;-41
2023/01/01 00:26:25;;;;;;;47.03;28.73;;;;;;;17.06;56.38;100769.00;6158084;23;20033;-40
2023/01/01 00:29:00;;;;;;;44.15;27.88;;;;;;;17.07;55.74;100756.44;6157558;23;20072;-41
2023/01/01 00:31:27;;;;;;;46.20;26.92;;;;;;;17.06;56.16;100755.59;6157579;23;20021;-41
2023/01/01 00:33:55;;;;;;;40.42;25.77;;;;;;;17.06;55.76;100760.97;6157816;23;20068;-41
2023/01/01 00:36:24;;;;;;;41.33;26.52;;;;;;;17.06;55.75;100755.59;6156751;23;20029;-41
2023/01/01 00:38:51;;;;;;;42.22;26.65;;;;;;;17.06;55.78;100752.09;6155411;23;20028;-41
2023/01/01 00:41:17;;;;;;;44.72;25.23;;;;;;;17.05;55.45;100770.00;6155734;23;20281;-42
2023/01/01 00:43:44;;;;;;;42.25;25.65;;;;;;;17.05;56.00;100756.59;6157829;23;20231;-42
2023/01/01 00:46:11;;;;;;;44.38;24.65;;;;;;;17.07;56.05;100759.13;6157120;23;20028;-42
2023/01/01 00:48:39;;;;;;;36.95;23.73;;;;;;;17.05;55.25;100747.72;6157299;23;20025;-41
2023/01/01 00:51:06;;;;;;;43.30;22.77;;;;;;;17.05;56.39;100751.25;6157199;23;20028;-42
2023/01/01 00:53:32;;;;;;;38.90;23.83;;;;;;;17.06;55.78;100750.25;6155449;23;20022;-41
2023/01/01 00:55:59;;;;;;;32.95;20.25;;;;;;;17.06;56.19;100752.09;6156956;23;20021;-41
2023/01/01 00:58:26;;;;;;;37.75;21.75;;;;;;;17.05;55.92;100778.03;6157864;23;20100;-41
2023/01/01 01:00:53;;;;;;;40.97;21.92;;;;;;;17.06;56.04;100760.13;6154725;23;20022;-41
2023/01/01 01:03:27;;;;;;;38.35;20.13;;;;;;;17.05;55.80;100753.94;6142840;23;20029;-43
2023/01/01 01:05:53;;;;;;;;;;;;;;;17.05;55.88;100761.97;6024143;23;20346;-43
2023/01/01 01:08:21;;;;;;;35.70;17.38;;;;;;;17.10;55.06;100758.81;6036747;23;19975;-43
2023/01/01 01:11:04;;;;;;;29.63;18.20;;;;;;;17.07;55.80;100769.84;6155863;23;20026;-42
2023/01/01 01:13:30;;;;;;;33.22;18.27;;;;;;;17.07;56.15;100767.16;6157013;23;20286;-42
2023/01/01 01:15:57;;;;;;;31.90;18.33;;;;;;;17.08;55.75;100768.81;6156431;23;20285;-42
2023/01/01 01:18:24;;;;;;;28.65;16.52;;;;;;;17.07;55.64;100786.72;6155774;23;20021;-42
2023/01/01 01:20:52;;;;;;;30.23;16.65;;;;;;;17.06;55.31;100778.84;6157758;23;20021;-42
2023/01/01 01:23:19;;;;;;;29.42;15.70;;;;;;;17.06;55.83;100776.19;6155278;23;20021;-42
2023/01/01 01:25:46;;;;;;;29.63;15.93;;;;;;;17.06;55.94;100793.09;6156574;23;20021;-41
2023/01/01 01:28:12;;;;;;;24.65;14.57;;;;;;;17.06;55.32;100795.78;6131633;23;20021;-42
2023/01/01 01:30:39;;;;;;;26.40;14.55;;;;;;;17.08;55.93;100795.59;6157643;23;20029;-41
2023/01/01 01:33:06;;;;;;;27.45;15.32;;;;;;;17.06;55.20;100790.41;6156836;23;20076;-42
2023/01/01 01:35:33;;;;;;;19.55;13.10;;;;;;;17.07;56.00;100799.28;6157760;23;20060;-42
2023/01/01 01:37:59;;;;;;;22.75;13.27;;;;;;;17.05;55.60;100804.81;6156532;23;20037;-42
2023/01/01 01:40:26;;;;;;;23.67;13.00;;;;;;;17.06;56.34;100794.94;6156802;23;20029;-42
2023/01/01 01:42:52;;;;;;;25.60;12.40;;;;;;;17.06;55.03;100805.63;6155794;23;20021;-42
2023/01/01 01:45:19;;;;;;;23.58;12.75;;;;;;;17.06;55.84;100809.16;6157473;23;20021;-42
2023/01/01 01:47:55;;;;;;;22.05;12.60;;;;;;;17.06;55.37;100811.00;6156450;23;20026;-42
2023/01/01 01:50:30;;;;;;;25.08;12.02;;;;;;;17.06;55.45;100813.66;6156472;23;20101;-42
2023/01/01 01:53:23;;;;;;;24.63;11.38;;;;;;;17.05;55.25;100807.47;6154754;23;20031;-41
2023/01/01 01:55:55;;;;;;;22.25;11.00;;;;;;;17.06;55.88;100805.63;6153979;23;20027;-41
2023/01/01 01:58:25;;;;;;;22.65;11.07;;;;;;;17.05;55.85;100807.47;6154978;23;20108;-41
2023/01/01 02:00:52;;;;;;;19.02;10.05;;;;;;;17.05;55.45;100815.50;6156847;23;20044;-41
2023/01/01 02:03:36;;;;;;;19.50;10.13;;;;;;;17.05;55.48;100820.88;6155669;23;20368;-42
2023/01/01 02:06:03;;;;;;;16.77;9.97;;;;;;;17.06;55.25;100829.75;6155790;23;20022;-39
2023/01/01 02:08:29;;;;;;;17.65;9.75;;;;;;;17.05;55.76;100834.25;6154746;23;20431;-41
2023/01/01 02:10:56;;;;;;;20.00;10.00;;;;;;;17.05;54.90;100839.63;6155499;23;20029;-41
2023/01/01 02:13:22;;;;;;;20.83;10.13;;;;;;;17.04;55.17;100843.25;6155016;23;20029;-42
2023/01/01 02:16:15;;;;;;;20.85;8.95;;;;;;;17.03;55.69;100833.53;6154148;23;20032;-42
2023/01/01 02:18:50;;;;;;;18.92;9.30;;;;;;;17.03;54.89;100842.41;6097032;23;20057;-41
2023/01/01 02:21:22;;;;;;;16.95;9.07;;;;;;;17.03;55.41;100834.38;6155850;23;20096;-42
2023/01/01 02:24:01;;;;;;;16.25;8.50;;;;;;;17.05;54.74;100828.06;6156110;23;20060;-41
2023/01/01 02:26:45;;;;;;;21.40;9.05;;;;;;;17.03;54.99;100830.88;6156569;23;20282;-41
2023/01/01 02:29:12;;;;;;;14.32;8.18;;;;;;;17.04;54.89;100848.59;6156728;23;20398;-41
2023/01/01 02:31:52;;;;;;;15.55;7.35;;;;;;;17.03;55.22;100852.28;6157089;23;20021;-41
2023/01/01 02:34:25;;;;;;;16.65;8.13;;;;;;;17.04;55.27;100835.22;6155472;23;20420;-41
2023/01/01 02:36:54;;;;;;;13.13;7.00;;;;;;;17.03;55.59;100853.13;6156441;23;20453;-41
2023/01/01 02:39:24;;;;;;;14.48;7.32;;;;;;;17.02;54.84;100846.09;6155298;23;20032;-42
2023/01/01 02:41:54;;;;;;;14.40;7.68;;;;;;;17.05;54.79;100844.97;6155207;23;20357;-41
2023/01/01 02:44:25;;;;;;;11.35;6.50;;;;;;;17.02;54.99;100843.41;6154500;23;20029;-42
2023/01/01 02:46:51;;;;;;;17.02;6.97;;;;;;;17.03;55.42;100853.13;6154821;23;20021;-42
2023/01/01 02:49:18;;;;;;;14.68;7.63;;;;;;;17.02;54.99;100843.41;6153574;23;20025;-41
2023/01/01 02:51:56;;;;;;;12.98;6.25;;;;;;;17.01;55.41;100856.97;6153715;23;20032;-42
2023/01/01 02:54:22;;;;;;;13.95;6.10;;;;;;;17.02;54.74;100848.78;6152565;23;20339;-41
2023/01/01 02:57:33;;;;;;;11.80;5.60;;;;;;;17.01;55.07;100854.28;6152503;23;20044;-41
2023/01/01 03:00:18;;;;;;;11.30;5.22;;;;;;;17.01;54.55;100856.97;6126402;23;20389;-41
2023/01/01 03:02:47;;;;;;;10.35;5.57;;;;;;;17.01;54.88;100860.47;6154140;23;20513;-42
2023/01/01 03:05:33;;;;;;;14.07;5.65;;;;;;;17.00;54.85;100874.88;6153103;23;20032;-42
2023/01/01 03:08:16;;;;;;;8.67;5.00;;;;;;;17.01;55.07;100878.38;6154468;23;20025;-41
2023/01/01 03:11:06;;;;;;;10.52;5.00;;;;;;;16.99;54.75;100865.13;6152352;23;20021;-41
2023/01/01 03:13:47;;;;;;;11.50;5.30;;;;;;;17.00;54.49;100864.16;6154289;23;20333;-41
2023/01/01 03:16:28;;;;;;;14.60;5.75;;;;;;;17.00;54.78;100874.00;6153926;23;20322;-41
2023/01/01 03:19:23;;;;;;;13.77;5.88;;;;;;;16.99;54.76;100869.63;6154604;23;20279;-41
2023/01/01 03:21:56;;;;;;;11.02;4.82;;;;;;;17.00;54.65;100874.00;6154258;23;20282;-41
2023/01/01 03:24:36;;;;;;;9.70;5.10;;;;;;;16.99;55.07;100877.66;6153974;23;20120;-41
2023/01/01 03:27:08;;;;;;;6.97;4.40;;;;;;;17.01;55.14;100887.25;6154213;23;20844;-41
2023/01/01 03:29:38;;;;;;;8.25;3.95;;;;;;;17.00;55.11;100900.78;6153394;23;20021;-41
2023/01/01 03:32:09;;;;;;;11.90;4.38;;;;;;;17.00;54.87;100892.75;6154397;23;20025;-41
2023/01/01 03:34:40;;;;;;;6.53;3.88;;;;;;;16.99;55.01;100899.94;6154001;23;20045;-41
2023/01/01 03:37:11;;;;;;;7.72;4.30;;;;;;;16.99;54.72;100923.19;6153732;23;20432;-41
2023/01/01 03:39:49;;;;;;;10.75;4.78;;;;;;;17.00;54.68;100922.19;6152150;23;20029;-41
2023/01/01 03:42:34;;;;;;;8.23;3.42;;;;;;;17.00;54.70;100911.47;6153053;23;20057;-41
2023/01/01 03:45:21;;;;;;;8.63;3.88;;;;;;;17.00;54.85;100916.84;6154047;23;20024;-41
2023/01/01 03:47:47;;;;;;;10.55;3.50;;;;;;;17.00;55.01;100916.84;6154566;23;20021;-42
2023/01/01 03:50:14;;;;;;;11.50;3.85;;;;;;;16.99;54.77;100923.19;6154362;23;20035;-41
2023/01/01 03:52:56;;;;;;;5.60;3.50;;;;;;;17.00;55.29;100935.56;6153740;23;20036;-41
2023/01/01 03:55:58;;;;;;;10.13;3.83;;;;;;;16.99;55.08;100934.75;6153691;23;20278;-41
2023/01/01 03:58:39;;;;;;;10.07;3.55;;;;;;;16.98;55.06;100954.47;6109062;23;20036;-41
2023/01/01 04:01:25;;;;;;;7.03;3.97;;;;;;;16.98;55.76;100959.84;6153318;23;20030;-40
2023/01/01 04:03:52;;;;;;;7.47;3.55;;;;;;;16.99;55.31;100958.00;6154231;23;20026;-40
2023/01/01 04:06:19;;;;;;;8.55;3.60;;;;;;;16.99;54.96;100949.97;6153649;23;20400;-41
2023/01/01 04:08:49;;;;;;;7.72;3.78;;;;;;;16.98;55.10;100929.53;6151115;23;20775;-41
2023/01/01 04:14:10;;;;;;;5.70;2.88;;;;;;;16.97;55.45;100944.75;6153438;23;20029;-41
2023/01/01 04:16:37;;;;;;;9.45;3.90;;;;;;;16.97;55.07;100943.91;6153730;23;20028;-40
2023/01/01 04:19:05;;;;;;;6.95;3.45;;;;;;;16.95;55.08;100948.56;6155811;23;20065;-41
2023/01/01 04:21:32;;;;;;;10.05;3.55;;;;;;;16.94;54.93;100958.44;6155930;23;20022;-41
2023/01/01 04:23:59;;;;;;;7.47;2.90;;;;;;;16.93;54.98;100954.06;6155268;23;20025;-41
2023/01/01 04:26:25;;;;;;;4.43;2.58;;;;;;;16.94;55.33;100962.94;6155910;23;20036;-40
2023/01/01 04:28:52;;;;;;;6.80;3.38;;;;;;;16.93;55.79;100967.47;6156033;23;20570;-41
2023/01/01 04:31:18;;;;;;;5.63;2.80;;;;;;;16.92;54.94;100978.28;6155492;23;20028;-41
2023/01/01 04:33:45;;;;;;;11.98;3.70;;;;;;;16.93;55.63;100986.19;6156152;23;20021;-41
2023/01/01 04:36:11;;;;;;;10.25;3.53;;;;;;;16.93;55.00;100996.06;6156315;23;20021;-41
2023/01/01 04:38:38;;;;;;;7.35;2.88;;;;;;;16.93;55.84;100998.75;6154340;23;20030;-41
2023/01/01 04:41:04;;;;;;;7.70;3.17;;;;;;;16.91;55.11;101012.25;6155069;23;20064;-41
2023/01/01 04:43:31;;;;;;;7.20;3.30;;;;;;;16.92;55.64;101015.78;6156451;23;20064;-41
2023/01/01 04:46:00;;;;;;;9.98;3.00;;;;;;;16.91;55.83;101011.41;6156577;23;20024;-40
2023/01/01 04:48:28;;;;;;;5.85;2.83;;;;;;;16.91;55.30;101022.97;6153724;23;20061;-41
2023/01/01 04:51:00;;;;;;;6.72;2.70;;;;;;;16.90;55.67;101037.34;6152158;23;20034;-41
2023/01/01 04:53:32;;;;;;;9.07;3.05;;;;;;;16.90;55.95;101028.47;6151582;23;20104;-42
2023/01/01 04:56:19;;;;;;;5.32;2.72;;;;;;;16.88;55.66;101036.63;6153517;23;20209;-41
2023/01/01 04:58:47;;;;;;;7.68;3.25;;;;;;;16.91;55.69;101043.53;6155007;23;20026;-41
2023/01/01 05:01:24;;;;;;;6.38;2.78;;;;;;;16.89;55.86;101045.53;6154253;23;20104;-42
2023/01/01 05:03:52;;;;;;;9.45;3.13;;;;;;;16.89;56.07;101042.84;6155306;23;20022;-41
2023/01/01 05:06:19;;;;;;;7.65;3.13;;;;;;;16.88;55.74;101039.31;6154407;23;20049;-42
2023/01/01 05:08:49;;;;;;;4.85;2.92;;;;;;;16.88;56.21;101046.50;6153225;23;20057;-41
2023/01/01 05:11:18;;;;;;;6.97;2.55;;;;;;;16.87;55.51;101048.34;6154936;23;20028;-42
2023/01/01 05:13:48;;;;;;;5.40;2.70;;;;;;;16.88;55.34;101041.97;6157431;23;20022;-41
2023/01/01 05:16:17;;;;;;;5.93;2.50;;;;;;;16.87;55.95;101048.34;6154935;23;20156;-41
2023/01/01 05:18:45;;;;;;;4.13;2.17;;;;;;;16.87;56.23;101059.03;6154886;23;20428;-41
2023/01/01 05:21:14;;;;;;;6.57;2.50;;;;;;;16.87;55.79;101060.88;6154228;23;20096;-42
2023/01/01 05:23:41;;;;;;;6.88;2.90;;;;;;;16.87;55.55;101066.22;6152076;23;20029;-42
2023/01/01 05:26:28;;;;;;;6.43;3.00;;;;;;;16.86;56.07;101052.00;6154260;23;20049;-42
2023/01/01 05:28:56;;;;;;;7.30;2.80;;;;;;;16.86;56.05;101059.19;6154282;23;20036;-42
2023/01/01 05:31:25;;;;;;;4.30;2.50;;;;;;;16.86;55.65;101072.56;6153847;23;20045;-41
2023/01/01 05:33:52;;;;;;;5.05;2.40;;;;;;;16.87;55.47;101087.66;6154150;23;20076;-41
2023/01/01 05:36:21;;;;;;;6.10;2.88;;;;;;;16.85;56.04;101076.25;6128926;23;20022;-40
2023/01/01 05:38:49;;;;;;;6.40;2.63;;;;;;;16.85;56.06;101086.97;6153606;23;20025;-41
2023/01/01 05:41:17;;;;;;;4.80;2.65;;;;;;;16.83;55.96;101087.06;6153019;23;20021;-41
2023/01/01 05:43:44;;;;;;;6.07;2.70;;;;;;;16.84;56.15;101087.91;6154887;23;20049;-42
2023/01/01 05:46:13;;;;;;;7.53;2.90;;;;;;;16.85;56.52;101089.63;6154742;23;20028;-41
2023/01/01 05:48:40;;;;;;;5.18;2.13;;;;;;;16.84;55.87;101080.72;6154712;23;20022;-41
2023/01/01 05:51:15;;;;;;;6.93;2.05;;;;;;;16.85;55.98;101089.63;6155863;23;20045;-40
2023/01/01 05:53:43;;;;;;;6.20;2.50;;;;;;;16.85;56.36;101100.34;6152988;23;20060;-40
2023/01/01 05:56:11;;;;;;;6.50;2.35;;;;;;;16.83;56.60;101100.47;6154664;23;20526;-42
2023/01/01 05:58:38;;;;;;;6.82;2.50;;;;;;;16.83;56.40;101097.78;6153853;23;20026;-41
2023/01/01 06:01:14;;;;;;;5.28;2.53;;;;;;;16.83;56.12;101113.84;6154384;23;20238;-42
2023/01/01 06:03:42;;;;;;;6.57;2.65;;;;;;;16.84;55.75;101123.56;6154454;23;20026;-42
2023/01/01 06:06:14;;;;;;;6.32;2.65;;;;;;;16.83;55.77;101123.72;6154936;23;20065;-41
2023/01/01 06:08:42;;;;;;;5.30;2.58;;;;;;;16.84;56.00;101128.06;6153152;23;20021;-41
2023/01/01 06:11:11;;;;;;;4.78;2.20;;;;;;;16.83;56.07;101129.06;6154154;23;20034;-39
2023/01/01 06:13:37;;;;;;;4.50;2.35;;;;;;;16.82;56.07;101136.25;6157078;23;20025;-40
2023/01/01 06:16:05;;;;;;;5.65;2.65;;;;;;;16.83;55.89;101134.41;6155424;23;20027;-41
2023/01/01 06:18:33;;;;;;;4.75;2.15;;;;;;;16.82;56.52;101132.75;6157227;23;20290;-41
2023/01/01 06:21:12;;;;;;;5.00;2.42;;;;;;;16.81;56.28;101147.13;6157062;23;20021;-44
2023/01/01 06:23:39;;;;;;;4.13;2.10;;;;;;;16.82;55.70;101146.97;6156245;23;20036;-41
2023/01/01 06:26:11;;;;;;;7.88;2.40;;;;;;;16.81;55.65;101147.97;6156572;23;20104;-41
2023/01/01 06:28:38;;;;;;;6.10;2.85;;;;;;;16.81;56.04;101147.13;6156591;23;20061;-41
2023/01/01 06:31:07;;;;;;;3.63;1.90;;;;;;;16.79;56.07;101157.94;6156975;23;20104;-41
2023/01/01 06:33:34;;;;;;;4.90;2.30;;;;;;;16.79;55.51;101168.66;6157188;23;20690;-41
2023/01/01 06:36:03;;;;;;;6.63;1.70;;;;;;;16.80;56.15;101164.13;6155962;23;20018;-41
2023/01/01 06:38:31;;;;;;;4.18;1.88;;;;;;;16.80;56.31;101174.84;6155533;23;20100;-41
2023/01/01 06:41:03;;;;;;;6.25;2.28;;;;;;;16.79;55.49;101184.72;6156615;23;20025;-42
2023/01/01 06:43:33;;;;;;;4.25;2.22;;;;;;;16.78;55.66;101191.91;6157152;23;20081;-38
2023/01/01 06:46:02;;;;;;;8.30;2.47;;;;;;;16.79;56.18;101187.38;6156539;23;20060;-40
2023/01/01 06:48:31;;;;;;;4.60;1.90;;;;;;;16.78;56.11;101185.69;6154748;23;20129;-40
2023/01/01 06:51:07;;;;;;;3.65;1.95;;;;;;;16.76;55.64;101183.19;6154956;23;20096;-40
2023/01/01 06:53:34;;;;;;;6.78;2.17;;;;;;;16.76;56.04;101193.88;6152245;23;20153;-40
2023/01/01 06:56:01;;;;;;;4.50;2.00;;;;;;;16.76;55.20;101193.88;6154245;23;20027;-40
2023/01/01 06:58:28;;;;;;;5.38;1.90;;;;;;;16.75;55.56;101194.00;6153835;23;20025;-41
2023/01/01 07:01:06;;;;;;;8.20;2.00;;;;;;;16.74;55.32;101185.13;6154041;23;20040;-41
2023/01/01 07:03:35;;;;;;;5.50;1.75;;;;;;;16.74;55.73;101203.88;6152819;23;20065;-41
2023/01/01 07:06:01;;;;;;;6.63;1.80;;;;;;;16.73;55.91;101215.56;6154490;23;20022;-40
2023/01/01 07:08:28;;;;;;;4.70;1.85;;;;;;;16.74;55.43;101225.28;6152111;23;20029;-41
2023/01/01 07:10:56;;;;;;;7.20;1.92;;;;;;;16.73;55.27;101223.59;6154158;23;20029;-41
2023/01/01 07:13:23;;;;;;;5.95;2.08;;;;;;;16.73;56.10;101236.97;6153651;23;20100;-41
2023/01/01 07:15:51;;;;;;;4.57;1.48;;;;;;;16.72;55.14;101248.63;6154068;23;20044;-41
2023/01/01 07:18:22;;;;;;;5.93;2.00;;;;;;;16.72;55.15;101256.66;6155170;23;20026;-40
2023/01/01 07:20:55;;;;;;;6.38;1.65;;;;;;;16.72;55.19;101253.13;6146595;23;20219;-41
2023/01/01 07:23:23;;;;;;;7.13;1.60;;;;;;;16.71;55.74;101257.63;6153785;23;20028;-41
2023/01/01 07:25:50;;;;;;;4.80;1.63;;;;;;;16.72;55.80;101261.16;6154642;23;20018;-43
2023/01/01 07:28:17;;;;;;;5.80;1.77;;;;;;;16.71;55.49;101265.66;6152430;23;20030;-41
2023/01/01 07:30:44;;;;;;;4.65;2.17;;;;;;;16.71;55.26;101284.41;6154949;23;20029;-42
2023/01/01 07:33:12;;;;;;;3.20;1.42;;;;;;;16.71;55.29;101288.91;6154021;23;20032;-41
2023/01/01 07:35:39;;;;;;;5.50;1.90;;;;;;;16.70;55.12;101297.91;6155326;23;20025;-40
2023/01/01 07:38:06;;;;;;;5.40;1.67;;;;;;;16.70;55.36;101303.28;6153956;23;20026;-40
2023/01/01 07:40:33;;;;;;;3.47;1.45;;;;;;;16.69;55.15;101298.91;6153363;23;20130;-42
2023/01/01 07:43:00;;;;;;;7.93;1.85;;;;;;;16.69;55.29;101309.63;6153575;23;20026;-42
2023/01/01 07:45:26;;;;;;;8.35;1.67;;;;;;;16.69;55.45;101310.47;6155120;23;20228;-43
2023/01/01 07:47:55;;;;;;;6.07;2.15;;;;;;;16.68;55.92;101316.81;6153082;23;20032;-41
2023/01/01 07:50:23;;;;;;;4.97;1.30;;;;;;;16.69;55.49;101328.34;6125633;23;20413;-42
2023/01/01 07:52:50;;;;;;;4.40;1.90;;;;;;;16.67;55.86;101333.81;6152387;23;20049;-42
2023/01/01 07:55:18;;;;;;;4.13;1.70;;;;;;;16.67;55.87;101343.69;6153465;23;20425;-43
2023/01/01 07:57:45;;;;;;;7.07;1.90;;;;;;;16.67;55.59;101359.75;6153519;23;20025;-43
2023/01/01 08:00:16;;;;;;;9.82;2.25;;;;;;;16.66;56.28;101345.50;6152373;23;20101;-44
2023/01/01 08:02:43;;;;;;;7.18;2.15;;;;;;;16.66;55.56;101361.56;6155774;23;20022;-43
2023/01/01 08:05:10;;;;;;;7.95;2.08;;;;;;;16.66;56.10;101376.78;6152167;23;20025;-42
2023/01/01 08:07:37;;;;;;;5.43;2.60;;;;;;;16.66;55.79;101371.44;6151262;23;20229;-43
2023/01/01 08:10:05;;;;;;;6.95;2.70;;;;;;;16.66;56.13;101380.31;6150381;23;20048;-43
2023/01/01 08:12:32;;;;;;;8.38;2.33;;;;;;;16.68;56.26;101390.88;6153711;23;20021;-43
2023/01/01 08:14:58;;;;;;;9.00;2.80;;;;;;;16.66;56.55;101388.34;6151903;23;20088;-43
2023/01/01 08:17:25;;;;;;;8.43;3.15;;;;;;;16.66;56.20;101384.81;6079518;23;20579;-40
2023/01/01 08:19:54;;;;;;;7.88;3.20;;;;;;;16.64;56.74;101394.78;6012934;23;20533;-43
2023/01/01 08:22:27;;;;;;;11.48;3.13;;;;;;;16.64;56.00;101397.47;6041529;23;20044;-41
2023/01/01 08:24:56;;;;;;;12.63;3.05;;;;;;;16.63;56.45;101393.09;6090864;23;20025;-43
2023/01/01 08:27:23;;;;;;;8.15;3.03;;;;;;;16.63;56.16;101393.09;6155344;23;20018;-41
2023/01/01 08:29:51;;;;;;;6.43;2.22;;;;;;;16.62;56.47;101397.59;6021736;23;20188;-41
2023/01/01 08:32:21;;;;;;;8.38;2.83;;;;;;;16.61;56.48;101389.72;6027640;23;20469;-41
2023/01/01 08:34:51;;;;;;;8.50;2.47;;;;;;;16.60;55.89;101383.50;6038717;23;20462;-40
2023/01/01 08:37:24;;;;;;;10.82;2.50;;;;;;;16.60;55.50;101382.66;5997077;23;20026;-41
2023/01/01 08:39:55;;;;;;;5.00;1.85;;;;;;;16.60;55.54;101388.84;6023341;23;20452;-43
2023/01/01 08:42:23;;;;;;;7.10;2.60;;;;;;;16.58;55.60;101388.16;6077940;23;20025;-42
2023/01/01 08:44:49;;;;;;;4.38;1.95;;;;;;;16.59;55.79;101394.34;6152064;23;20124;-42
2023/01/01 08:47:22;;;;;;;9.85;2.53;;;;;;;16.57;55.72;101396.31;6154473;23;20022;-42
2023/01/01 08:49:49;;;;;;;7.50;2.67;;;;;;;16.58;56.08;101398.84;6152447;23;20240;-42
2023/01/01 08:52:20;;;;;;;8.57;3.10;;;;;;;16.59;55.53;101395.19;6108560;23;20376;-43
2023/01/01 08:55:00;;;;;;;8.85;2.30;;;;;;;16.56;55.62;101411.50;6026979;23;20433;-42
2023/01/01 08:57:30;;;;;;;9.60;2.65;;;;;;;16.57;56.05;101404.34;6057264;23;20036;-43
2023/01/01 08:59:57;;;;;;;6.53;2.00;;;;;;;16.56;55.44;101410.66;6156705;23;20100;-42
2023/01/01 09:02:24;;;;;;;9.32;2.67;;;;;;;16.56;55.70;101416.84;6156920;23;20417;-42
2023/01/01 09:04:50;;;;;;;6.47;2.38;;;;;;;16.54;56.11;101424.19;6154609;23;20306;-42
2023/01/01 09:07:17;;;;;;;7.50;1.95;;;;;;;16.54;55.17;101429.53;6153688;23;20100;-40
2023/01/01 09:09:44;;;;;;;9.05;2.80;;;;;;;16.54;55.66;101438.41;6152236;23;20087;-41
2023/01/01 09:12:15;;;;;;;6.68;2.28;;;;;;;16.54;55.83;101438.41;6155573;23;20308;-40
2023/01/01 09:14:41;;;;;;;7.88;2.33;;;;;;;16.56;55.93;101443.59;6157167;23;20113;-42
2023/01/01 09:17:08;;;;;;;5.68;2.00;;;;;;;16.56;55.53;101430.22;6156480;23;20029;-42
2023/01/01 09:19:34;;;;;;;6.88;2.42;;;;;;;16.57;55.61;101439.13;6156336;23;20032;-42
2023/01/01 09:22:01;;;;;;;10.73;2.47;;;;;;;16.60;55.32;101437.03;6158256;23;20270;-41
2023/01/01 09:24:27;;;;;;;5.30;2.13;;;;;;;16.58;55.57;101428.28;6155747;23;20033;-42
2023/01/01 09:26:54;;;;;;;7.43;2.72;;;;;;;16.60;56.03;101420.97;6156030;23;20032;-42
2023/01/01 09:29:20;;;;;;;10.38;2.25;;;;;;;16.61;55.76;101421.84;6156589;23;20049;-41
2023/01/01 09:31:48;;;;;;;7.10;2.58;;;;;;;16.61;55.80;101428.03;6156782;23;20067;-42
2023/01/01 09:34:16;;;;;;;7.13;2.17;;;;;;;16.63;55.69;101428.75;6157157;23;20875;-40
2023/01/01 09:36:43;;;;;;;6.85;2.72;;;;;;;16.66;54.92;101441.03;6157825;23;20326;-40
2023/01/01 09:39:14;;;;;;;4.90;1.98;;;;;;;16.68;55.17;101429.22;6155004;23;20036;-41
2023/01/01 09:41:59;;;;;;;8.43;2.30;;;;;;;16.72;55.36;101421.75;6156833;23;20140;-40
2023/01/01 09:44:44;;;;;;;7.38;2.50;;;;;;;16.76;55.05;101421.41;6157141;23;20314;-40
2023/01/01 09:47:20;;;;;;;7.05;2.35;;;;;;;16.77;54.21;101433.81;6156675;23;20025;-41
2023/01/01 09:49:49;;;;;;;6.20;2.60;;;;;;;16.79;54.54;101433.66;6157111;23;20032;-41
2023/01/01 09:52:18;;;;;;;5.40;2.05;;;;;;;16.80;54.63;101447.91;6157366;23;20047;-41
2023/01/01 09:54:54;;;;;;;7.95;3.53;;;;;;;16.81;54.25;101457.66;6155816;23;20101;-40
2023/01/01 09:57:27;;;;;;;6.50;2.03;;;;;;;16.82;54.63;101457.50;6155864;23;20025;-41
2023/01/01 09:59:56;;;;;;;6.83;2.53;;;;;;;16.82;54.87;101460.19;6155451;23;20061;-41
2023/01/01 10:02:42;;;;;;;9.27;2.72;;;;;;;16.83;54.27;101469.06;6155147;23;20818;-41
2023/01/01 10:05:31;;;;;;;6.80;1.83;;;;;;;16.85;54.67;101475.16;6156386;23;20064;-41
2023/01/01 10:08:03;;;;;;;5.68;2.40;;;;;;;16.84;54.91;101465.41;6155569;23;20425;-41
2023/01/01 10:10:34;;;;;;;4.65;2.00;;;;;;;16.84;54.13;101468.91;6157289;23;20327;-41
2023/01/01 10:13:36;;;;;;;7.00;2.47;;;;;;;16.84;55.06;101478.78;6157145;23;20025;-41
2023/01/01 10:16:12;;;;;;;6.68;2.17;;;;;;;16.86;54.79;101480.38;6121505;23;20044;-40
2023/01/01 10:18:41;;;;;;;4.93;2.40;;;;;;;16.87;54.66;101479.38;6157070;23;20029;-40
2023/01/01 10:21:11;;;;;;;5.40;2.15;;;;;;;16.88;54.78;101464.16;6157156;23;20041;-40
2023/01/01 10:24:02;;;;;;;6.68;2.45;;;;;;;16.88;54.71;101464.16;6156770;23;20084;-40
2023/01/01 10:26:30;;;;;;;10.10;2.80;;;;;;;16.91;54.30;101463.91;6156062;23;20108;-41
2023/01/01 10:29:17;;;;;;;6.03;2.60;;;;;;;16.91;54.92;101455.88;6156804;23;20025;-41
2023/01/01 10:31:46;;;;;;;8.45;2.70;;;;;;;16.93;55.24;101453.94;6156690;23;20416;-41
2023/01/01 10:34:20;;;;;;;6.40;2.80;;;;;;;16.95;54.57;101446.59;6156846;23;20339;-41
2023/01/01 10:36:48;;;;;;;;;;;;;;;16.98;55.18;101449.00;6156468;23;20017;-41
2023/01/01 10:39:16;;;;;;;8.30;3.08;;;;;;;17.02;54.44;101434.38;6155842;23;19991;-41
2023/01/01 10:41:44;;;;;;;7.60;2.78;;;;;;;17.03;54.92;101433.38;6156359;23;20056;-41
2023/01/01 10:44:16;;;;;;;7.03;2.50;;;;;;;17.05;54.93;101444.00;6157209;23;20104;-41
2023/01/01 10:46:47;;;;;;;7.05;2.33;;;;;;;17.07;54.96;101448.22;6157030;23;20021;-41
2023/01/01 10:49:15;;;;;;;7.20;2.80;;;;;;;17.10;54.70;101460.50;6157126;23;20061;-41
2023/01/01 10:51:48;;;;;;;7.65;2.30;;;;;;;17.13;54.43;101476.31;6156211;23;20025;-41
2023/01/01 10:54:24;;;;;;;8.60;2.90;;;;;;;17.14;55.19;101472.66;6156161;23;20029;-41
2023/01/01 10:56:57;;;;;;;7.18;2.70;;;;;;;17.16;55.02;101484.91;6155390;23;20032;-42
2023/01/01 10:59:38;;;;;;;6.45;2.97;;;;;;;17.17;54.86;101499.19;6156116;23;20028;-41
2023/01/01 11:02:22;;;;;;;5.80;2.85;;;;;;;17.18;54.98;101493.69;6156536;23;20032;-41
2023/01/01 11:04:51;;;;;;;8.38;2.90;;;;;;;17.19;54.68;101503.41;6156511;23;20037;-41
2023/01/01 11:07:33;;;;;;;9.00;3.88;;;;;;;17.20;54.51;101501.56;6156689;23;20092;-40
2023/01/01 11:10:03;;;;;;;6.13;2.50;;;;;;;17.20;54.43;101499.72;6155193;23;20029;-42
2023/01/01 11:12:36;;;;;;;7.80;2.88;;;;;;;17.18;54.27;101507.06;6156434;23;20097;-42
2023/01/01 11:15:36;;;;;;;6.82;2.80;;;;;;;17.18;54.13;101508.91;6156818;23;20263;-41
2023/01/01 11:18:12;;;;;;;8.65;2.83;;;;;;;17.18;54.30;101514.25;6154593;23;20425;-41
2023/01/01 11:20:40;;;;;;;7.10;2.65;;;;;;;17.17;54.52;101516.09;6155409;23;20332;-42
2023/01/01 11:23:25;;;;;;;8.00;2.72;;;;;;;17.16;54.69;101509.00;6155272;23;20032;-42
2023/01/01 11:26:04;;;;;;;7.68;3.00;;;;;;;17.16;54.80;101502.81;6156455;23;20021;-42
2023/01/01 11:28:33;;;;;;;6.20;2.67;;;;;;;17.15;55.10;101512.69;6156140;23;20404;-42
2023/01/01 11:31:05;;;;;;;8.52;2.95;;;;;;;17.14;54.84;101519.03;6155572;23;20025;-42
2023/01/01 11:33:49;;;;;;;9.63;2.75;;;;;;;17.15;54.47;101507.31;6156131;23;20101;-42
2023/01/01 11:36:27;;;;;;;11.15;2.88;;;;;;;17.14;55.23;101515.50;6156817;23;20025;-41
2023/01/01 11:39:26;;;;;;;5.90;2.60;;;;;;;17.13;54.84;101508.47;6155371;23;20028;-40
2023/01/01 11:41:57;;;;;;;8.30;2.60;;;;;;;17.12;54.65;101507.59;6155910;23;20025;-44
2023/01/01 11:44:41;;;;;;;9.18;2.88;;;;;;;17.11;55.05;101516.59;6156037;23;20047;-41